sensor_id;sensor_type;location;lat;lon;timestamp;P1;durP1;ratioP1;P2;durP2;ratioP2
76123;SDS011;65173;48.066;20.976;2023-06-26T05:04:46;4.87;;;2.87;;
76123;SDS011;65173;48.066;20.976;2023-06-26T05:07:49;5.05;;;3.03;;
76123;SDS011;65173;48.066;20.976;2023-06-26T05:11:14;4.38;;;2.47;;
76123;SDS011;65173;48.066;20.976;2023-06-26T05:14:16;5.43;;;2.77;;
76123;SDS011;65173;48.066;20.976;2023-06-26T05:17:19;5.18;;;3.30;;
76123;SDS011;65173;48.066;20.976;2023-06-26T05:20:21;5.72;;;2.67;;
76123;SDS011;65173;48.066;20.976;2023-06-26T05:23:24;4.60;;;2.88;;
76123;SDS011;65173;48.066;20.976;2023-06-26T05:26:28;4.70;;;3.38;;
76123;SDS011;65173;48.066;20.976;2023-06-26T05:29:31;3.35;;;2.92;;
76123;SDS011;65173;48.066;20.976;2023-06-26T05:32:34;4.70;;;2.58;;
76123;SDS011;65173;48.066;20.976;2023-06-26T05:35:38;5.10;;;3.27;;
76123;SDS011;65173;48.066;20.976;2023-06-26T05:38:42;7.53;;;3.80;;
76123;SDS011;65173;48.066;20.976;2023-06-26T05:41:45;5.03;;;2.80;;
76123;SDS011;65173;48.066;20.976;2023-06-26T05:44:47;4.33;;;3.27;;
76123;SDS011;65173;48.066;20.976;2023-06-26T05:47:50;4.43;;;3.15;;
76123;SDS011;65173;48.066;20.976;2023-06-26T05:50:53;4.07;;;2.92;;
76123;SDS011;65173;48.066;20.976;2023-06-26T05:53:56;3.47;;;2.88;;
76123;SDS011;65173;48.066;20.976;2023-06-26T05:56:59;3.67;;;3.10;;
76123;SDS011;65173;48.066;20.976;2023-06-26T06:00:02;4.93;;;3.30;;
76123;SDS011;65173;48.066;20.976;2023-06-26T06:03:14;4.30;;;3.42;;
76123;SDS011;65173;48.066;20.976;2023-06-26T06:06:17;5.60;;;3.77;;
76123;SDS011;65173;48.066;20.976;2023-06-26T06:09:19;5.15;;;3.55;;
76123;SDS011;65173;48.066;20.976;2023-06-26T06:12:22;6.57;;;3.08;;
76123;SDS011;65173;48.066;20.976;2023-06-26T06:15:25;4.50;;;3.57;;
76123;SDS011;65173;48.066;20.976;2023-06-26T06:18:31;3.72;;;2.83;;
76123;SDS011;65173;48.066;20.976;2023-06-26T06:21:33;5.20;;;3.22;;
76123;SDS011;65173;48.066;20.976;2023-06-26T06:24:36;3.35;;;2.70;;
76123;SDS011;65173;48.066;20.976;2023-06-26T06:27:39;4.07;;;3.10;;
76123;SDS011;65173;48.066;20.976;2023-06-26T06:30:41;4.90;;;3.30;;
76123;SDS011;65173;48.066;20.976;2023-06-26T06:33:47;3.95;;;2.50;;
76123;SDS011;65173;48.066;20.976;2023-06-26T06:36:49;4.43;;;2.63;;
76123;SDS011;65173;48.066;20.976;2023-06-26T06:39:52;5.32;;;2.95;;
76123;SDS011;65173;48.066;20.976;2023-06-26T06:42:54;4.55;;;2.83;;
76123;SDS011;65173;48.066;20.976;2023-06-26T06:45:57;4.87;;;2.87;;
76123;SDS011;65173;48.066;20.976;2023-06-26T06:49:00;4.70;;;3.60;;
76123;SDS011;65173;48.066;20.976;2023-06-26T06:52:03;5.05;;;3.15;;
76123;SDS011;65173;48.066;20.976;2023-06-26T06:55:06;3.47;;;2.80;;
76123;SDS011;65173;48.066;20.976;2023-06-26T06:58:10;5.45;;;3.33;;
76123;SDS011;65173;48.066;20.976;2023-06-26T07:01:13;4.18;;;2.70;;
76123;SDS011;65173;48.066;20.976;2023-06-26T07:04:16;3.65;;;2.45;;
76123;SDS011;65173;48.066;20.976;2023-06-26T07:07:18;4.97;;;3.60;;
76123;SDS011;65173;48.066;20.976;2023-06-26T07:10:21;4.10;;;3.35;;
76123;SDS011;65173;48.066;20.976;2023-06-26T07:13:24;4.75;;;2.72;;
76123;SDS011;65173;48.066;20.976;2023-06-26T07:16:27;4.63;;;3.10;;
76123;SDS011;65173;48.066;20.976;2023-06-26T07:19:29;6.35;;;3.15;;
76123;SDS011;65173;48.066;20.976;2023-06-26T07:22:32;3.60;;;2.95;;
76123;SDS011;65173;48.066;20.976;2023-06-26T07:25:35;4.22;;;2.97;;
76123;SDS011;65173;48.066;20.976;2023-06-26T07:28:37;5.63;;;3.45;;
76123;SDS011;65173;48.066;20.976;2023-06-26T07:31:40;4.78;;;3.20;;
76123;SDS011;65173;48.066;20.976;2023-06-26T07:34:42;5.22;;;2.80;;
76123;SDS011;65173;48.066;20.976;2023-06-26T07:37:45;6.43;;;2.93;;
76123;SDS011;65173;48.066;20.976;2023-06-26T07:40:48;5.28;;;2.42;;
76123;SDS011;65173;48.066;20.976;2023-06-26T07:43:50;4.57;;;3.80;;
76123;SDS011;65173;48.066;20.976;2023-06-26T07:46:53;4.37;;;3.20;;
76123;SDS011;65173;48.066;20.976;2023-06-26T07:49:56;3.83;;;3.17;;
76123;SDS011;65173;48.066;20.976;2023-06-26T07:52:58;5.63;;;3.50;;
76123;SDS011;65173;48.066;20.976;2023-06-26T07:56:01;5.75;;;4.43;;
76123;SDS011;65173;48.066;20.976;2023-06-26T07:59:04;7.05;;;4.85;;
76123;SDS011;65173;48.066;20.976;2023-06-26T08:02:06;5.22;;;4.03;;
76123;SDS011;65173;48.066;20.976;2023-06-26T08:05:09;5.22;;;3.60;;
76123;SDS011;65173;48.066;20.976;2023-06-26T08:08:12;4.87;;;4.20;;
76123;SDS011;65173;48.066;20.976;2023-06-26T08:11:15;6.15;;;4.07;;
76123;SDS011;65173;48.066;20.976;2023-06-26T08:14:18;4.55;;;3.72;;
76123;SDS011;65173;48.066;20.976;2023-06-26T08:17:20;4.93;;;3.40;;
76123;SDS011;65173;48.066;20.976;2023-06-26T08:20:23;5.50;;;3.90;;
76123;SDS011;65173;48.066;20.976;2023-06-26T08:23:26;4.53;;;4.00;;
76123;SDS011;65173;48.066;20.976;2023-06-26T08:26:28;4.78;;;3.67;;
76123;SDS011;65173;48.066;20.976;2023-06-26T08:29:31;5.40;;;4.38;;
76123;SDS011;65173;48.066;20.976;2023-06-26T08:32:33;3.92;;;3.42;;
76123;SDS011;65173;48.066;20.976;2023-06-26T08:35:36;5.88;;;3.78;;
76123;SDS011;65173;48.066;20.976;2023-06-26T08:38:38;4.37;;;3.57;;
76123;SDS011;65173;48.066;20.976;2023-06-26T08:41:44;4.93;;;4.18;;
76123;SDS011;65173;48.066;20.976;2023-06-26T08:44:47;4.57;;;3.50;;
76123;SDS011;65173;48.066;20.976;2023-06-26T08:48:03;7.00;;;4.63;;
76123;SDS011;65173;48.066;20.976;2023-06-26T08:51:11;5.78;;;4.43;;
76123;SDS011;65173;48.066;20.976;2023-06-26T08:54:17;4.20;;;3.35;;
76123;SDS011;65173;48.066;20.976;2023-06-26T08:57:30;4.53;;;3.78;;
76123;SDS011;65173;48.066;20.976;2023-06-26T09:00:34;6.28;;;3.20;;
76123;SDS011;65173;48.066;20.976;2023-06-26T09:03:37;4.20;;;3.80;;
76123;SDS011;65173;48.066;20.976;2023-06-26T09:06:39;4.50;;;3.50;;
76123;SDS011;65173;48.066;20.976;2023-06-26T09:09:42;6.27;;;4.63;;
76123;SDS011;65173;48.066;20.976;2023-06-26T09:12:46;4.05;;;3.65;;
76123;SDS011;65173;48.066;20.976;2023-06-26T09:15:52;4.75;;;3.95;;
76123;SDS011;65173;48.066;20.976;2023-06-26T09:18:56;5.00;;;4.20;;
76123;SDS011;65173;48.066;20.976;2023-06-26T09:21:59;4.07;;;3.40;;
76123;SDS011;65173;48.066;20.976;2023-06-26T09:25:02;3.38;;;3.05;;
76123;SDS011;65173;48.066;20.976;2023-06-26T09:28:05;3.88;;;3.58;;
76123;SDS011;65173;48.066;20.976;2023-06-26T09:31:08;4.65;;;3.95;;
76123;SDS011;65173;48.066;20.976;2023-06-26T09:34:12;8.45;;;3.47;;
76123;SDS011;65173;48.066;20.976;2023-06-26T09:37:15;5.38;;;3.58;;
76123;SDS011;65173;48.066;20.976;2023-06-26T09:40:17;4.50;;;3.83;;
76123;SDS011;65173;48.066;20.976;2023-06-26T09:43:20;3.78;;;3.35;;
76123;SDS011;65173;48.066;20.976;2023-06-26T09:46:29;4.63;;;3.60;;
76123;SDS011;65173;48.066;20.976;2023-06-26T09:49:33;5.43;;;3.57;;
76123;SDS011;65173;48.066;20.976;2023-06-26T09:52:36;4.30;;;3.78;;
76123;SDS011;65173;48.066;20.976;2023-06-26T09:55:38;4.60;;;3.78;;
76123;SDS011;65173;48.066;20.976;2023-06-26T09:58:43;4.55;;;3.45;;
76123;SDS011;65173;48.066;20.976;2023-06-26T10:01:46;4.38;;;3.75;;
76123;SDS011;65173;48.066;20.976;2023-06-26T10:04:49;5.30;;;3.67;;
76123;SDS011;65173;48.066;20.976;2023-06-26T10:07:52;3.90;;;3.22;;
76123;SDS011;65173;48.066;20.976;2023-06-26T10:10:57;4.10;;;3.70;;
76123;SDS011;65173;48.066;20.976;2023-06-26T10:13:59;4.03;;;3.42;;
76123;SDS011;65173;48.066;20.976;2023-06-26T10:17:19;6.57;;;3.85;;
76123;SDS011;65173;48.066;20.976;2023-06-26T10:20:25;3.93;;;3.40;;
76123;SDS011;65173;48.066;20.976;2023-06-26T10:23:29;5.25;;;3.78;;
76123;SDS011;65173;48.066;20.976;2023-06-26T10:26:33;4.03;;;3.58;;
76123;SDS011;65173;48.066;20.976;2023-06-26T10:29:39;4.30;;;3.40;;
76123;SDS011;65173;48.066;20.976;2023-06-26T10:32:42;5.60;;;3.83;;
76123;SDS011;65173;48.066;20.976;2023-06-26T10:35:45;4.85;;;3.47;;
76123;SDS011;65173;48.066;20.976;2023-06-26T10:38:58;4.03;;;3.47;;
76123;SDS011;65173;48.066;20.976;2023-06-26T10:42:10;4.70;;;4.13;;
76123;SDS011;65173;48.066;20.976;2023-06-26T10:45:23;5.15;;;3.40;;
76123;SDS011;65173;48.066;20.976;2023-06-26T10:48:30;3.70;;;3.38;;
76123;SDS011;65173;48.066;20.976;2023-06-26T10:51:32;4.15;;;3.80;;
76123;SDS011;65173;48.066;20.976;2023-06-26T10:54:35;4.60;;;3.97;;
76123;SDS011;65173;48.066;20.976;2023-06-26T10:57:39;4.03;;;3.72;;
76123;SDS011;65173;48.066;20.976;2023-06-26T11:00:49;3.70;;;3.40;;
76123;SDS011;65173;48.066;20.976;2023-06-26T11:10:24;4.32;;;3.30;;
76123;SDS011;65173;48.066;20.976;2023-06-26T11:13:27;4.43;;;3.50;;
76123;SDS011;65173;48.066;20.976;2023-06-26T11:16:31;3.63;;;3.10;;
76123;SDS011;65173;48.066;20.976;2023-06-26T11:19:35;3.40;;;3.10;;
76123;SDS011;65173;48.066;20.976;2023-06-26T11:22:38;3.55;;;3.25;;
76123;SDS011;65173;48.066;20.976;2023-06-26T11:25:43;3.65;;;2.65;;
76123;SDS011;65173;48.066;20.976;2023-06-26T11:28:47;4.60;;;2.83;;
76123;SDS011;65173;48.066;20.976;2023-06-26T11:31:58;3.35;;;3.10;;
76123;SDS011;65173;48.066;20.976;2023-06-26T11:35:06;3.20;;;2.77;;
76123;SDS011;65173;48.066;20.976;2023-06-26T11:38:09;3.38;;;2.67;;
76123;SDS011;65173;48.066;20.976;2023-06-26T11:41:16;4.40;;;2.60;;
76123;SDS011;65173;48.066;20.976;2023-06-26T11:44:19;5.63;;;3.63;;
76123;SDS011;65173;48.066;20.976;2023-06-26T11:47:23;3.08;;;2.88;;
76123;SDS011;65173;48.066;20.976;2023-06-26T11:50:26;3.72;;;3.33;;
76123;SDS011;65173;48.066;20.976;2023-06-26T11:53:30;4.00;;;2.80;;
76123;SDS011;65173;48.066;20.976;2023-06-26T11:56:32;3.60;;;3.30;;
76123;SDS011;65173;48.066;20.976;2023-06-26T11:59:36;3.92;;;3.50;;
76123;SDS011;65173;48.066;20.976;2023-06-26T12:02:39;2.95;;;2.40;;
76123;SDS011;65173;48.066;20.976;2023-06-26T12:05:42;2.97;;;2.67;;
76123;SDS011;65173;48.066;20.976;2023-06-26T12:08:47;3.20;;;2.90;;
76123;SDS011;65173;48.066;20.976;2023-06-26T12:11:51;3.42;;;3.03;;
76123;SDS011;65173;48.066;20.976;2023-06-26T12:14:56;3.47;;;3.17;;
76123;SDS011;65173;48.066;20.976;2023-06-26T12:17:58;2.92;;;2.70;;
76123;SDS011;65173;48.066;20.976;2023-06-26T12:21:01;3.50;;;2.97;;
76123;SDS011;65173;48.066;20.976;2023-06-26T12:24:04;3.72;;;2.90;;
76123;SDS011;65173;48.066;20.976;2023-06-26T12:27:09;3.40;;;3.03;;
76123;SDS011;65173;48.066;20.976;2023-06-26T12:30:13;3.63;;;2.55;;
76123;SDS011;65173;48.066;20.976;2023-06-26T12:33:16;3.35;;;2.95;;
76123;SDS011;65173;48.066;20.976;2023-06-26T12:36:18;3.70;;;2.97;;
76123;SDS011;65173;48.066;20.976;2023-06-26T12:39:21;3.53;;;2.80;;
76123;SDS011;65173;48.066;20.976;2023-06-26T12:42:24;4.47;;;3.20;;
76123;SDS011;65173;48.066;20.976;2023-06-26T12:45:28;3.38;;;3.08;;
76123;SDS011;65173;48.066;20.976;2023-06-26T12:48:41;3.53;;;3.23;;
76123;SDS011;65173;48.066;20.976;2023-06-26T12:51:52;3.60;;;3.30;;
76123;SDS011;65173;48.066;20.976;2023-06-26T12:54:54;4.15;;;2.90;;
76123;SDS011;65173;48.066;20.976;2023-06-26T12:57:58;3.47;;;3.17;;
76123;SDS011;65173;48.066;20.976;2023-06-26T13:01:04;2.73;;;2.53;;
76123;SDS011;65173;48.066;20.976;2023-06-26T13:04:17;2.67;;;2.10;;
76123;SDS011;65173;48.066;20.976;2023-06-26T13:07:20;3.10;;;2.80;;
76123;SDS011;65173;48.066;20.976;2023-06-26T13:10:22;3.20;;;2.90;;
76123;SDS011;65173;48.066;20.976;2023-06-26T13:13:25;3.10;;;2.80;;
76123;SDS011;65173;48.066;20.976;2023-06-26T13:16:27;3.30;;;2.50;;
76123;SDS011;65173;48.066;20.976;2023-06-26T13:19:32;2.80;;;2.58;;
76123;SDS011;65173;48.066;20.976;2023-06-26T13:22:35;3.80;;;3.25;;
76123;SDS011;65173;48.066;20.976;2023-06-26T13:25:38;3.03;;;2.70;;
76123;SDS011;65173;48.066;20.976;2023-06-26T13:28:40;2.92;;;2.38;;
76123;SDS011;65173;48.066;20.976;2023-06-26T13:31:43;3.60;;;3.30;;
76123;SDS011;65173;48.066;20.976;2023-06-26T13:34:46;2.80;;;2.60;;
76123;SDS011;65173;48.066;20.976;2023-06-26T13:37:48;3.33;;;3.03;;
76123;SDS011;65173;48.066;20.976;2023-06-26T13:40:52;3.28;;;2.97;;
76123;SDS011;65173;48.066;20.976;2023-06-26T13:43:55;3.40;;;3.00;;
76123;SDS011;65173;48.066;20.976;2023-06-26T13:47:01;3.05;;;2.70;;
76123;SDS011;65173;48.066;20.976;2023-06-26T13:50:04;4.68;;;3.25;;
76123;SDS011;65173;48.066;20.976;2023-06-26T13:53:08;3.22;;;2.80;;
76123;SDS011;65173;48.066;20.976;2023-06-26T13:56:11;3.50;;;2.80;;
76123;SDS011;65173;48.066;20.976;2023-06-26T13:59:13;3.33;;;2.65;;
76123;SDS011;65173;48.066;20.976;2023-06-26T14:02:17;3.10;;;2.80;;
76123;SDS011;65173;48.066;20.976;2023-06-26T14:05:20;3.60;;;3.03;;
76123;SDS011;65173;48.066;20.976;2023-06-26T14:08:35;2.35;;;2.15;;
76123;SDS011;65173;48.066;20.976;2023-06-26T14:11:37;3.05;;;2.63;;
76123;SDS011;65173;48.066;20.976;2023-06-26T14:14:40;3.45;;;3.10;;
76123;SDS011;65173;48.066;20.976;2023-06-26T14:17:43;4.13;;;2.50;;
76123;SDS011;65173;48.066;20.976;2023-06-26T14:20:46;3.38;;;2.22;;
76123;SDS011;65173;48.066;20.976;2023-06-26T14:23:49;3.60;;;2.90;;
76123;SDS011;65173;48.066;20.976;2023-06-26T14:26:52;3.28;;;2.97;;
76123;SDS011;65173;48.066;20.976;2023-06-26T14:29:57;3.55;;;2.53;;
76123;SDS011;65173;48.066;20.976;2023-06-26T14:33:00;3.50;;;2.97;;
76123;SDS011;65173;48.066;20.976;2023-06-26T14:36:02;2.72;;;2.53;;
76123;SDS011;65173;48.066;20.976;2023-06-26T14:39:05;3.43;;;2.87;;
76123;SDS011;65173;48.066;20.976;2023-06-26T14:42:09;2.58;;;2.35;;
76123;SDS011;65173;48.066;20.976;2023-06-26T14:45:11;2.28;;;2.08;;
76123;SDS011;65173;48.066;20.976;2023-06-26T14:48:15;2.60;;;2.40;;
76123;SDS011;65173;48.066;20.976;2023-06-26T14:51:18;3.03;;;2.72;;
76123;SDS011;65173;48.066;20.976;2023-06-26T14:54:20;2.95;;;2.65;;
76123;SDS011;65173;48.066;20.976;2023-06-26T14:57:23;2.95;;;2.65;;
76123;SDS011;65173;48.066;20.976;2023-06-26T15:00:25;3.65;;;2.63;;
76123;SDS011;65173;48.066;20.976;2023-06-26T15:03:29;2.95;;;2.50;;
76123;SDS011;65173;48.066;20.976;2023-06-26T15:06:32;3.20;;;2.40;;
76123;SDS011;65173;48.066;20.976;2023-06-26T15:09:35;2.93;;;2.30;;
76123;SDS011;65173;48.066;20.976;2023-06-26T15:12:37;4.18;;;2.30;;
76123;SDS011;65173;48.066;20.976;2023-06-26T15:15:40;2.78;;;2.20;;
76123;SDS011;65173;48.066;20.976;2023-06-26T15:18:42;2.83;;;2.33;;
76123;SDS011;65173;48.066;20.976;2023-06-26T15:21:45;2.75;;;2.55;;
76123;SDS011;65173;48.066;20.976;2023-06-26T15:24:48;2.33;;;2.13;;
76123;SDS011;65173;48.066;20.976;2023-06-26T15:27:51;2.50;;;2.30;;
76123;SDS011;65173;48.066;20.976;2023-06-26T15:30:54;3.90;;;2.80;;
76123;SDS011;65173;48.066;20.976;2023-06-26T15:33:57;2.35;;;2.15;;
76123;SDS011;65173;48.066;20.976;2023-06-26T15:36:59;2.85;;;2.65;;
76123;SDS011;65173;48.066;20.976;2023-06-26T15:40:02;2.50;;;1.80;;
76123;SDS011;65173;48.066;20.976;2023-06-26T15:43:05;2.28;;;2.08;;
76123;SDS011;65173;48.066;20.976;2023-06-26T15:46:07;4.05;;;2.28;;
76123;SDS011;65173;48.066;20.976;2023-06-26T15:49:10;3.00;;;2.40;;
76123;SDS011;65173;48.066;20.976;2023-06-26T15:52:12;3.97;;;2.58;;
76123;SDS011;65173;48.066;20.976;2023-06-26T15:55:15;3.28;;;2.38;;
76123;SDS011;65173;48.066;20.976;2023-06-26T15:58:18;2.53;;;1.92;;
76123;SDS011;65173;48.066;20.976;2023-06-26T16:01:20;1.98;;;1.88;;
76123;SDS011;65173;48.066;20.976;2023-06-26T16:04:23;2.28;;;2.08;;
76123;SDS011;65173;48.066;20.976;2023-06-26T16:07:26;2.63;;;2.10;;
76123;SDS011;65173;48.066;20.976;2023-06-26T16:10:31;3.07;;;2.20;;
76123;SDS011;65173;48.066;20.976;2023-06-26T16:13:34;2.92;;;2.10;;
76123;SDS011;65173;48.066;20.976;2023-06-26T16:16:36;2.25;;;2.05;;
76123;SDS011;65173;48.066;20.976;2023-06-26T16:19:39;2.33;;;1.87;;
76123;SDS011;65173;48.066;20.976;2023-06-26T16:22:42;2.83;;;2.05;;
76123;SDS011;65173;48.066;20.976;2023-06-26T16:25:44;2.60;;;2.10;;
76123;SDS011;65173;48.066;20.976;2023-06-26T16:28:50;3.45;;;2.05;;
76123;SDS011;65173;48.066;20.976;2023-06-26T16:31:53;2.65;;;2.22;;
76123;SDS011;65173;48.066;20.976;2023-06-26T16:34:56;4.32;;;2.47;;
76123;SDS011;65173;48.066;20.976;2023-06-26T16:37:59;2.92;;;2.58;;
76123;SDS011;65173;48.066;20.976;2023-06-26T16:41:03;3.00;;;2.00;;
76123;SDS011;65173;48.066;20.976;2023-06-26T16:44:05;2.65;;;1.92;;
76123;SDS011;65173;48.066;20.976;2023-06-26T16:47:08;3.45;;;2.33;;
76123;SDS011;65173;48.066;20.976;2023-06-26T16:50:11;2.63;;;2.20;;
76123;SDS011;65173;48.066;20.976;2023-06-26T16:53:14;2.38;;;2.17;;
76123;SDS011;65173;48.066;20.976;2023-06-26T16:56:17;2.95;;;2.42;;
76123;SDS011;65173;48.066;20.976;2023-06-26T16:59:22;2.53;;;2.20;;
76123;SDS011;65173;48.066;20.976;2023-06-26T17:02:25;3.55;;;2.03;;
76123;SDS011;65173;48.066;20.976;2023-06-26T17:05:28;2.35;;;2.13;;
76123;SDS011;65173;48.066;20.976;2023-06-26T17:08:30;3.33;;;2.08;;
76123;SDS011;65173;48.066;20.976;2023-06-26T17:11:33;3.23;;;1.77;;
76123;SDS011;65173;48.066;20.976;2023-06-26T17:14:36;2.90;;;2.30;;
76123;SDS011;65173;48.066;20.976;2023-06-26T17:17:38;3.20;;;2.22;;
76123;SDS011;65173;48.066;20.976;2023-06-26T17:20:41;2.70;;;2.07;;
76123;SDS011;65173;48.066;20.976;2023-06-26T17:23:44;3.13;;;2.30;;
76123;SDS011;65173;48.066;20.976;2023-06-26T17:26:46;3.13;;;2.30;;
76123;SDS011;65173;48.066;20.976;2023-06-26T17:29:49;2.67;;;2.38;;
76123;SDS011;65173;48.066;20.976;2023-06-26T17:32:52;2.22;;;1.92;;
76123;SDS011;65173;48.066;20.976;2023-06-26T17:35:56;2.13;;;1.92;;
76123;SDS011;65173;48.066;20.976;2023-06-26T17:38:59;3.35;;;2.17;;
76123;SDS011;65173;48.066;20.976;2023-06-26T17:42:02;3.00;;;2.73;;
76123;SDS011;65173;48.066;20.976;2023-06-26T17:45:06;3.25;;;2.28;;
76123;SDS011;65173;48.066;20.976;2023-06-26T17:48:09;3.85;;;2.55;;
76123;SDS011;65173;48.066;20.976;2023-06-26T17:51:11;2.67;;;2.47;;
76123;SDS011;65173;48.066;20.976;2023-06-26T17:54:15;2.88;;;2.33;;
76123;SDS011;65173;48.066;20.976;2023-06-26T17:57:18;2.97;;;2.55;;
76123;SDS011;65173;48.066;20.976;2023-06-26T18:00:21;2.45;;;2.25;;
76123;SDS011;65173;48.066;20.976;2023-06-26T18:03:23;3.58;;;2.60;;
76123;SDS011;65173;48.066;20.976;2023-06-26T18:06:26;3.78;;;2.50;;
76123;SDS011;65173;48.066;20.976;2023-06-26T18:09:29;4.78;;;3.05;;
76123;SDS011;65173;48.066;20.976;2023-06-26T18:12:33;3.20;;;2.23;;
76123;SDS011;65173;48.066;20.976;2023-06-26T18:15:36;3.65;;;2.78;;
76123;SDS011;65173;48.066;20.976;2023-06-26T18:18:39;3.67;;;2.95;;
76123;SDS011;65173;48.066;20.976;2023-06-26T18:21:42;2.97;;;2.23;;
76123;SDS011;65173;48.066;20.976;2023-06-26T18:24:45;3.55;;;2.20;;
76123;SDS011;65173;48.066;20.976;2023-06-26T18:27:47;3.35;;;2.30;;
76123;SDS011;65173;48.066;20.976;2023-06-26T18:30:51;2.60;;;2.15;;
76123;SDS011;65173;48.066;20.976;2023-06-26T18:33:53;2.20;;;1.67;;
76123;SDS011;65173;48.066;20.976;2023-06-26T18:36:56;3.05;;;2.30;;
76123;SDS011;65173;48.066;20.976;2023-06-26T18:40:00;3.22;;;2.38;;
76123;SDS011;65173;48.066;20.976;2023-06-26T18:43:03;5.13;;;2.57;;
76123;SDS011;65173;48.066;20.976;2023-06-26T18:46:06;4.60;;;2.72;;
76123;SDS011;65173;48.066;20.976;2023-06-26T18:49:08;5.60;;;3.20;;
76123;SDS011;65173;48.066;20.976;2023-06-26T18:52:11;5.73;;;3.73;;
76123;SDS011;65173;48.066;20.976;2023-06-26T18:55:14;4.30;;;2.83;;
76123;SDS011;65173;48.066;20.976;2023-06-26T18:58:18;2.60;;;2.25;;
76123;SDS011;65173;48.066;20.976;2023-06-26T19:01:21;3.30;;;2.47;;
76123;SDS011;65173;48.066;20.976;2023-06-26T19:04:24;3.90;;;2.40;;
76123;SDS011;65173;48.066;20.976;2023-06-26T19:07:27;3.40;;;2.30;;
76123;SDS011;65173;48.066;20.976;2023-06-26T19:10:30;3.83;;;2.35;;
76123;SDS011;65173;48.066;20.976;2023-06-26T19:13:33;3.37;;;2.47;;
76123;SDS011;65173;48.066;20.976;2023-06-26T19:16:36;3.00;;;2.08;;
76123;SDS011;65173;48.066;20.976;2023-06-26T19:19:39;3.85;;;2.75;;
76123;SDS011;65173;48.066;20.976;2023-06-26T19:22:42;5.60;;;3.00;;
76123;SDS011;65173;48.066;20.976;2023-06-26T19:25:45;5.55;;;2.40;;
76123;SDS011;65173;48.066;20.976;2023-06-26T19:28:49;3.75;;;2.85;;
76123;SDS011;65173;48.066;20.976;2023-06-26T19:31:52;3.30;;;2.38;;
76123;SDS011;65173;48.066;20.976;2023-06-26T19:34:55;3.40;;;2.05;;
76123;SDS011;65173;48.066;20.976;2023-06-26T19:37:57;4.15;;;2.70;;
76123;SDS011;65173;48.066;20.976;2023-06-26T19:41:06;4.57;;;2.80;;
76123;SDS011;65173;48.066;20.976;2023-06-26T19:44:09;3.63;;;2.80;;
76123;SDS011;65173;48.066;20.976;2023-06-26T19:47:11;5.78;;;2.78;;
76123;SDS011;65173;48.066;20.976;2023-06-26T19:50:14;4.55;;;2.63;;
76123;SDS011;65173;48.066;20.976;2023-06-26T19:53:17;6.13;;;2.87;;
76123;SDS011;65173;48.066;20.976;2023-06-26T19:56:19;5.03;;;3.00;;
76123;SDS011;65173;48.066;20.976;2023-06-26T19:59:22;7.63;;;3.33;;
76123;SDS011;65173;48.066;20.976;2023-06-26T20:02:25;4.95;;;2.90;;
76123;SDS011;65173;48.066;20.976;2023-06-26T20:05:27;5.22;;;3.28;;
76123;SDS011;65173;48.066;20.976;2023-06-26T20:08:30;6.50;;;2.92;;
76123;SDS011;65173;48.066;20.976;2023-06-26T20:11:33;3.97;;;2.28;;
76123;SDS011;65173;48.066;20.976;2023-06-26T20:14:36;3.83;;;2.87;;
76123;SDS011;65173;48.066;20.976;2023-06-26T20:17:38;4.47;;;2.83;;
76123;SDS011;65173;48.066;20.976;2023-06-26T20:20:41;3.80;;;2.30;;
76123;SDS011;65173;48.066;20.976;2023-06-26T20:23:43;4.83;;;3.00;;
76123;SDS011;65173;48.066;20.976;2023-06-26T20:26:46;4.85;;;2.60;;
76123;SDS011;65173;48.066;20.976;2023-06-26T20:29:49;4.85;;;2.95;;
76123;SDS011;65173;48.066;20.976;2023-06-26T20:32:51;5.05;;;3.00;;
76123;SDS011;65173;48.066;20.976;2023-06-26T20:35:54;4.13;;;3.58;;
76123;SDS011;65173;48.066;20.976;2023-06-26T20:38:56;6.10;;;3.13;;
76123;SDS011;65173;48.066;20.976;2023-06-26T20:41:59;5.28;;;3.35;;
76123;SDS011;65173;48.066;20.976;2023-06-26T20:45:03;7.03;;;3.53;;
76123;SDS011;65173;48.066;20.976;2023-06-26T20:48:06;5.18;;;3.38;;
76123;SDS011;65173;48.066;20.976;2023-06-26T20:51:09;5.72;;;3.53;;
76123;SDS011;65173;48.066;20.976;2023-06-26T20:54:13;5.30;;;3.63;;
76123;SDS011;65173;48.066;20.976;2023-06-26T20:57:16;6.78;;;2.97;;
76123;SDS011;65173;48.066;20.976;2023-06-26T21:03:23;4.78;;;3.00;;
76123;SDS011;65173;48.066;20.976;2023-06-26T21:06:26;7.07;;;3.30;;
76123;SDS011;65173;48.066;20.976;2023-06-26T21:09:29;6.80;;;2.88;;
76123;SDS011;65173;48.066;20.976;2023-06-26T21:12:31;3.25;;;2.67;;
76123;SDS011;65173;48.066;20.976;2023-06-26T21:15:34;4.97;;;2.63;;
76123;SDS011;65173;48.066;20.976;2023-06-26T21:18:37;5.20;;;2.70;;
76123;SDS011;65173;48.066;20.976;2023-06-26T21:21:39;3.58;;;2.88;;
76123;SDS011;65173;48.066;20.976;2023-06-26T21:24:42;5.90;;;2.57;;
76123;SDS011;65173;48.066;20.976;2023-06-26T21:27:44;5.75;;;2.65;;
76123;SDS011;65173;48.066;20.976;2023-06-26T21:30:48;3.70;;;3.03;;
76123;SDS011;65173;48.066;20.976;2023-06-26T21:33:51;4.65;;;2.80;;
76123;SDS011;65173;48.066;20.976;2023-06-26T21:36:53;3.83;;;2.75;;
76123;SDS011;65173;48.066;20.976;2023-06-26T21:39:56;4.53;;;3.03;;
76123;SDS011;65173;48.066;20.976;2023-06-26T21:42:59;4.25;;;2.72;;
76123;SDS011;65173;48.066;20.976;2023-06-26T21:46:02;3.70;;;2.73;;
76123;SDS011;65173;48.066;20.976;2023-06-26T21:49:05;4.63;;;2.75;;
76123;SDS011;65173;48.066;20.976;2023-06-26T21:52:07;3.90;;;2.63;;
76123;SDS011;65173;48.066;20.976;2023-06-26T21:55:10;3.23;;;2.70;;
76123;SDS011;65173;48.066;20.976;2023-06-26T21:58:12;3.45;;;2.28;;
76123;SDS011;65173;48.066;20.976;2023-06-26T22:01:15;3.33;;;2.38;;
76123;SDS011;65173;48.066;20.976;2023-06-26T22:04:18;3.10;;;2.30;;
76123;SDS011;65173;48.066;20.976;2023-06-26T22:07:21;3.22;;;2.22;;
76123;SDS011;65173;48.066;20.976;2023-06-26T22:10:24;5.13;;;3.17;;
76123;SDS011;65173;48.066;20.976;2023-06-26T22:13:26;4.30;;;3.17;;
76123;SDS011;65173;48.066;20.976;2023-06-26T22:16:29;3.73;;;2.47;;
76123;SDS011;65173;48.066;20.976;2023-06-26T22:19:32;5.53;;;3.00;;
76123;SDS011;65173;48.066;20.976;2023-06-26T22:22:35;4.68;;;2.72;;
76123;SDS011;65173;48.066;20.976;2023-06-26T22:25:38;7.27;;;2.87;;
76123;SDS011;65173;48.066;20.976;2023-06-26T22:28:41;4.07;;;2.05;;
76123;SDS011;65173;48.066;20.976;2023-06-26T22:31:44;4.97;;;2.53;;
76123;SDS011;65173;48.066;20.976;2023-06-26T22:34:47;4.95;;;2.65;;
76123;SDS011;65173;48.066;20.976;2023-06-26T22:37:51;3.10;;;2.13;;
76123;SDS011;65173;48.066;20.976;2023-06-26T22:40:54;3.08;;;2.50;;
76123;SDS011;65173;48.066;20.976;2023-06-26T22:43:57;6.32;;;2.65;;
76123;SDS011;65173;48.066;20.976;2023-06-26T22:47:00;4.77;;;2.97;;
76123;SDS011;65173;48.066;20.976;2023-06-26T22:50:03;3.78;;;2.42;;
76123;SDS011;65173;48.066;20.976;2023-06-26T22:53:08;3.75;;;2.47;;
76123;SDS011;65173;48.066;20.976;2023-06-26T22:56:10;4.03;;;2.87;;
76123;SDS011;65173;48.066;20.976;2023-06-26T22:59:13;3.53;;;2.67;;
76123;SDS011;65173;48.066;20.976;2023-06-26T23:02:16;5.13;;;2.67;;
76123;SDS011;65173;48.066;20.976;2023-06-26T23:05:21;4.68;;;2.75;;
76123;SDS011;65173;48.066;20.976;2023-06-26T23:08:24;5.03;;;2.58;;
76123;SDS011;65173;48.066;20.976;2023-06-26T23:11:28;3.60;;;2.42;;
76123;SDS011;65173;48.066;20.976;2023-06-26T23:14:30;3.20;;;2.22;;
76123;SDS011;65173;48.066;20.976;2023-06-26T23:17:33;4.20;;;2.40;;
76123;SDS011;65173;48.066;20.976;2023-06-26T23:20:37;3.90;;;2.70;;